ADDS METAR Data INFO
IDs: Format: Raw Decoded Include TAF

Data at: 2252 UTC 22 Jun 2018

KJKA 222235Z AUTO 21014KT 10SM CLR 31/23 A2988 RMK AO2 T03060232
KJKA 222215Z AUTO 22013KT 10SM CLR 30/24 A2989 RMK AO2 T03040238
KJKA 222155Z AUTO 10SM CLR 31/24 A2989 RMK AO2 T03070238
KJKA 222135Z AUTO 10SM SCT030 31/24 A2989 RMK AO2 T03080235
KJKA 222115Z AUTO 10SM SCT030 31/23 A2989 RMK AO2 T03090231
KJKA 222055Z AUTO 10SM SCT030 SCT035 31/24 A2990 RMK AO2 T03100235
KJKA 222035Z AUTO 10SM SCT030 BKN037 31/24 A2991 RMK AO2 T03120236
KJKA 222015Z AUTO 22013KT 10SM SCT032 SCT040 32/24 A2992 RMK AO2 T03170235
KJKA 221955Z AUTO 22014KT 10SM SCT030 SCT037 32/23 A2992 RMK AO2 T03150234
KJKA 221935Z AUTO 10SM SCT026 BKN034 31/24 A2992 RMK AO2 T03140242
KJKA 221915Z AUTO 23012KT 10SM SCT030 SCT039 32/24 A2993 RMK AO2 T03160238
KJKA 221855Z AUTO 25011KT 10SM SCT028 BKN037 32/23 A2994 RMK AO2 T03180232
KJKA 221835Z AUTO 10SM BKN028 OVC037 31/23 A2994 RMK AO2 T03110230
KJKA 221815Z AUTO 10SM OVC028 31/24 A2995 RMK AO2 T03090236
KJKA 221755Z AUTO 10SM BKN026 BKN034 31/24 A2995 RMK AO2 T03090239 10318 20278
KJKA 221735Z AUTO 27014KT 10SM SCT028 SCT032 32/24 A2995 RMK AO2 T03150238
KJKA 221715Z AUTO 25011G18KT 10SM BKN026 BKN032 31/24 A2995 RMK AO2 T03120242
KJKA 221655Z AUTO 27014KT 10SM BKN026 BKN033 31/24 A2995 RMK AO2 T03090243
KJKA 221635Z AUTO 27014G20KT 10SM SCT026 SCT033 31/24 A2995 RMK AO2 T03070241
KJKA 221615Z AUTO 26013G20KT 10SM SCT026 SCT033 31/24 A2995 RMK AO2 T03100240
KJKA 221555Z AUTO 28013G19KT 10SM SCT026 SCT030 31/24 A2994 RMK AO2 T03050235
KJKA 221535Z AUTO 27015G19KT 10SM BKN026 BKN032 30/24 A2995 RMK AO2 T03020236
KJKA 221515Z AUTO 25011G18KT 10SM BKN026 BKN032 31/24 A2995 RMK AO2 T03060237
KJKA 221455Z AUTO 10SM SCT026 SCT031 SCT038 30/23 A2995 RMK AO2 T03030233
KJKA 221435Z AUTO 25013KT 10SM SCT026 SCT031 30/24 A2995 RMK AO2 T03040238
KJKA 221415Z AUTO 25012KT 10SM SCT026 30/23 A2995 RMK AO2 T03000230
KJKA 221355Z AUTO 25012KT 10SM CLR 30/23 A2994 RMK AO2 T02980231
KJKA 221335Z AUTO 26013G17KT 10SM SCT024 SCT032 30/23 A2995 RMK AO2 T02960233
KJKA 221315Z AUTO 27012G16KT 10SM SCT024 SCT032 29/23 A2994 RMK AO2 T02880234
KJKA 221255Z AUTO 26012G18KT 10SM CLR 29/23 A2994 RMK AO2 T02890230
KJKA 221235Z AUTO 26009KT 10SM CLR 29/24 A2994 RMK AO2 T02850235
KJKA 221215Z AUTO 27010KT 10SM SCT024 28/23 A2994 RMK AO2 LTG DSNT E T02810233
KJKA 221155Z AUTO 26008G15KT 10SM SCT024 SCT034 BKN120 28/24 A2994 RMK AO2 70001 T02770235 10277 20268
KJKA 221135Z AUTO 27006KT 10SM SCT022 OVC120 28/23 A2993 RMK AO2 T02750234
KJKA 221115Z AUTO 25009G14KT 10SM SCT022 OVC120 27/23 A2993 RMK AO2 T02740233
KJKA 221055Z AUTO 10SM SCT120 27/24 A2993 RMK AO2 T02700236
KJKA 221035Z AUTO 25008KT 10SM SCT022 SCT031 SCT120 27/24 A2992 RMK AO2 T02700235
KJKA 221015Z AUTO 26007KT 10SM SCT022 SCT031 BKN120 27/24 A2992 RMK AO2 T02700240
KJKA 220955Z AUTO 25009KT 10SM BKN120 27/24 A2991 RMK AO2 T02700241
KJKA 220935Z AUTO 25008KT 10SM SCT038 BKN120 27/24 A2990 RMK AO2 T02710240
KJKA 220915Z AUTO 26009KT 10SM BKN038 BKN120 27/24 A2990 RMK AO2 T02710241
KJKA 220855Z AUTO 25008KT 10SM OVC036 27/24 A2990 RMK AO2 T02730242
KJKA 220835Z AUTO 25008KT 10SM SCT036 27/25 A2989 RMK AO2 T02720245
KJKA 220815Z AUTO 24009KT 10SM CLR 27/24 A2989 RMK AO2 T02730242
KJKA 220755Z AUTO 24010G16KT 10SM CLR 27/24 A2989 RMK AO2 T02720241
KJKA 220735Z AUTO 24009KT 10SM SCT036 SCT042 27/24 A2989 RMK AO2 T02710240
KJKA 220715Z AUTO 24012G15KT 10SM SCT026 BKN038 27/24 A2989 RMK AO2 T02730240
KJKA 220655Z AUTO 25009KT 10SM SCT025 OVC033 27/25 A2989 RMK AO2 T02730245
KJKA 220635Z AUTO 25011KT 10SM BKN025 BKN031 27/24 A2989 RMK AO2 T02730243
KJKA 220615Z AUTO 10SM SCT031 27/24 A2989 RMK AO2 T02700243
KJKA 220555Z AUTO 10SM CLR 27/24 A2989 RMK AO2 T02700243 10287 20236
KJKA 220535Z AUTO 10SM SCT026 26/24 A2989 RMK AO2 T02590244
KJKA 220515Z AUTO 10SM SCT026 25/24 A2991 RMK AO2 T02500240
KJKA 220455Z AUTO 00000KT 10SM CLR 24/24 A2991 RMK AO2 T02410239 403240236
KJKA 220435Z AUTO 00000KT 10SM SCT026 24/24 A2992 RMK AO2 T02390239
KJKA 220415Z AUTO 00000KT 10SM SCT026 24/24 A2992 RMK AO2 T02400240
KJKA 220355Z AUTO 00000KT 10SM CLR 24/24 A2992 RMK AO2 T02390238
KJKA 220335Z AUTO 00000KT 10SM CLR 24/24 A2992 RMK AO2 T02370235
KJKA 220315Z AUTO 00000KT 10SM CLR 24/24 A2993 RMK AO2 T02400238
KJKA 220255Z AUTO 00000KT 10SM CLR 24/24 A2992 RMK AO2 T02370235
KJKA 220235Z AUTO 00000KT 10SM CLR 24/24 A2992 RMK AO2 T02410236
KJKA 220215Z AUTO 00000KT 10SM CLR 25/24 A2991 RMK AO2 T02450238
KJKA 220155Z AUTO 00000KT 10SM CLR 25/24 A2991 RMK AO2 T02450237
KJKA 220135Z AUTO 00000KT 10SM CLR 25/23 A2991 RMK AO2 T02450232
KJKA 220115Z AUTO 00000KT 10SM CLR 25/23 A2990 RMK AO2 T02470226
KJKA 220055Z AUTO 00000KT 10SM CLR 25/22 A2990 RMK AO2 T02500221
KJKA 220035Z AUTO 27008G15KT 10SM -RA SCT028 SCT060 SCT090 25/22 A2990 RMK AO2 T02510218
KJKA 220015Z AUTO 29014G17KT 270V330 10SM SCT026 SCT090 28/23 A2991 RMK AO2 LTG DSNT N AND NE T02830232
KJKA 212355Z AUTO 26009KT 10SM CLR 29/23 A2991 RMK AO2 LTG DSNT NW T02870233 10318 20287
KJKA 212335Z AUTO 26007KT 10SM CLR 29/23 A2991 RMK AO2 LTG DSNT W T02890232
KJKA 212315Z AUTO 25007KT 10SM SCT027 29/23 A2990 RMK AO2 T02900231
KJKA 212255Z AUTO 10SM SCT027 SCT032 SCT039 29/24 A2990 RMK AO2 LTG DSNT N AND NW T02910235
KJKA 212235Z AUTO 26011G18KT 10SM SCT027 SCT032 29/23 A2992 RMK AO2 T02920231
KJKA 212215Z AUTO 10SM SCT025 30/23 A2992 RMK AO2 LTG DSNT NW T02950234
KJKA 212155Z AUTO 10SM CLR 30/23 A2991 RMK AO2 T02980229
KJKA 212135Z AUTO 25014KT 10SM SCT031 30/23 A2991 RMK AO2 LTG DSNT NW T03030226
KJKA 212115Z AUTO 23012KT 10SM CLR 31/23 A2990 RMK AO2 LTG DSNT NW T03130232
KJKA 212055Z AUTO 23013KT 10SM CLR 31/23 A2991 RMK AO2 T03130230
KJKA 212035Z AUTO 25009KT 10SM CLR 31/23 A2991 RMK AO2 T03050234
KJKA 212015Z AUTO 22013KT 10SM CLR 31/22 A2991 RMK AO2 T03080223
KJKA 211955Z AUTO 10SM CLR 31/23 A2991 RMK AO2 T03120225
KJKA 211935Z AUTO 22012G18KT 10SM CLR 32/23 A2991 RMK AO2 T03150228
KJKA 211915Z AUTO 21013KT 10SM SCT034 32/23 A2991 RMK AO2 T03150225
KJKA 211855Z AUTO 21012G16KT 10SM BKN034 BKN041 31/23 A2991 RMK AO2 T03130230
KJKA 211835Z AUTO 26011G20KT 10SM SCT034 BKN041 32/23 A2992 RMK AO2 T03150227
KJKA 211815Z AUTO 26013G17KT 10SM BKN034 31/23 A2992 RMK AO2 T03110226
KJKA 211755Z AUTO 26010G17KT 10SM BKN034 31/23 A2993 RMK AO2 60001 T03090226 10324 20251
KJKA 211735Z AUTO 23008KT 10SM SCT034 32/22 A2994 RMK AO2 T03180224
KJKA 211715Z AUTO 23011KT 10SM CLR 32/22 A2994 RMK AO2 T03170221
KJKA 211655Z AUTO 23008KT 10SM CLR 31/23 A2995 RMK AO2 T03130233
KJKA 211635Z AUTO 23010KT 10SM SCT029 31/23 A2995 RMK AO2 T03140232
KJKA 211615Z AUTO 28013G18KT 10SM SCT029 31/24 A2995 RMK AO2 T03080237
KJKA 211555Z AUTO 27013G19KT 10SM CLR 31/23 A2995 RMK AO2 T03050232
KJKA 211535Z AUTO 28011G19KT 10SM CLR 30/24 A2995 RMK AO2 T03020236
KJKA 211515Z AUTO 27013G17KT 10SM SCT075 30/24 A2995 RMK AO2 T02960237
KJKA 211455Z AUTO 33006KT 10SM SCT025 SCT032 BKN075 28/25 A2995 RMK AO2 60001 T02780249
KJKA 211435Z AUTO 28004KT 10SM SCT023 SCT050 OVC065 27/25 A2995 RMK AO2 LTG DSNT N T02730248
KJKA 211355Z AUTO 27013G20KT 5SM RA SCT020 BKN031 OVC055 27/24 A2996 RMK AO2 P0001 T02690241
KJKA 211335Z AUTO 22007G17KT 10SM SCT020 30/25 A2995 RMK AO2 T02970249
KJKA 211315Z AUTO 25006KT 10SM CLR 29/24 A2995 RMK AO2 T02940244
KJKA 211255Z AUTO 25007KT 10SM CLR 29/25 A2995 RMK AO2 T02870246
KJKA 211235Z AUTO 10SM CLR 28/25 A2995 RMK AO2 T02800246
KJKA 211215Z AUTO 10SM CLR 28/25 A2995 RMK AO2 T02750245
KJKA 211155Z AUTO 00000KT 10SM CLR 27/25 A2994 RMK AO2 T02660246 10266 20236
KJKA 211135Z AUTO 26003KT 10SM CLR 26/24 A2994 RMK AO2 T02580242
KJKA 211115Z AUTO 10SM CLR 26/24 A2994 RMK AO2 T02550240
KJKA 211055Z AUTO 10SM CLR 25/24 A2993 RMK AO2 T02500237